Arcadia, Oklahoma
Current Conditions -  °F | °C
As of 8:53 PM on Monday 22 Dec 2014 (Local Time) from KGOK Reporting Station
Clear Clear  
Wind Chill:   Ceiling: Unl
Heat Index:   Visibility: 10mi
Dew Point:   Wind: 6mph
Humidity: 83%   Direction: 210°SSW
Pressure: 29.7"   Gusts: NA
Location:  35.67°N, 97.33°W
Report Text: KGOK 230253Z AUTO 21005KT 10SM CLR 04/02 A2970 RMK AO2 SLP061 T00440017 53018
Loading
Personal Weather Stations






























Interactive Weather Map New forecast layout! Learn more

10-Day Weather Forecast

Advertisements
Track Severe Weather on mobile